createdAt,value
2018-08-04T00:00:46.433Z,69.25
2018-08-04T00:03:18.486Z,68.97
2018-08-04T00:05:48.472Z,68.24
2018-08-04T00:08:19.105Z,68.78
2018-08-04T00:10:51.847Z,69.02
2018-08-04T00:13:26.189Z,69.55
2018-08-04T00:15:58.425Z,68.84
2018-08-04T00:18:29.150Z,69.29
2018-08-04T00:20:59.690Z,70.01
2018-08-04T00:23:31.062Z,70.26
2018-08-04T00:26:02.473Z,69.59
2018-08-04T00:28:32.895Z,70.74
2018-08-04T00:31:03.318Z,70.45
2018-08-04T00:33:38.062Z,70.46
2018-08-04T00:36:08.297Z,70.40
2018-08-04T00:38:38.273Z,69.19
2018-08-04T00:41:09.057Z,69.75
2018-08-04T00:43:39.372Z,69.56
2018-08-04T00:46:10.387Z,69.36
2018-08-04T00:48:41.228Z,69.68
2018-08-04T00:51:12.259Z,70.85
2018-08-04T00:53:42.405Z,70.92
2018-08-04T00:56:13.405Z,70.83
2018-08-04T00:58:43.897Z,70.21
2018-08-04T01:01:14.431Z,70.48
2018-08-04T01:03:44.539Z,70.64
2018-08-04T01:06:14.914Z,70.33
2018-08-04T01:08:44.941Z,70.71
2018-08-04T01:11:17.159Z,71.36
2018-08-04T01:13:49.653Z,70.86
2018-08-04T01:16:23.320Z,71.08
2018-08-04T01:18:53.288Z,71.39
2018-08-04T01:21:24.643Z,71.97
2018-08-04T01:23:55.459Z,71.41
2018-08-04T01:26:26.319Z,70.93
2018-08-04T01:28:56.317Z,71.20
2018-08-04T01:31:44.997Z,70.95
2018-08-04T01:34:15.067Z,71.47
2018-08-04T01:36:46.942Z,71.48
2018-08-04T01:39:17.907Z,71.80
2018-08-04T01:41:50.891Z,72.02
2018-08-04T01:44:21.325Z,71.66
2018-08-04T01:46:53.120Z,70.42
2018-08-04T01:49:23.117Z,71.48
2018-08-04T01:51:53.510Z,70.66
2018-08-04T01:54:23.662Z,70.98
2018-08-04T01:56:53.726Z,72.10
2018-08-04T01:59:23.842Z,71.65
2018-08-04T02:01:54.610Z,71.56
2018-08-04T02:04:24.619Z,71.46
2018-08-04T02:06:54.662Z,71.56
2018-08-04T02:09:24.690Z,72.48
2018-08-04T02:11:55.154Z,71.62
2018-08-04T02:14:25.250Z,72.65
2018-08-04T02:16:56.092Z,72.33
2018-08-04T02:19:33.775Z,72.44
2018-08-04T02:22:04.610Z,71.86
2018-08-04T02:24:48.765Z,71.72
2018-08-04T02:27:18.774Z,72.58
2018-08-04T02:29:49.581Z,72.34
2018-08-04T02:32:20.085Z,72.25
2018-08-04T02:34:50.082Z,72.97
2018-08-04T02:37:20.134Z,72.86
2018-08-04T02:39:50.348Z,72.65
2018-08-04T02:42:20.841Z,72.38
2018-08-04T02:44:50.912Z,73.16
2018-08-04T02:47:20.906Z,73.03
2018-08-04T02:49:51.434Z,73.37
2018-08-04T02:52:21.456Z,73.73
2018-08-04T02:54:52.448Z,74.22
2018-08-04T02:57:22.521Z,73.16
2018-08-04T02:59:52.791Z,72.77
2018-08-04T03:02:22.788Z,72.99
2018-08-04T03:04:52.778Z,73.74
2018-08-04T03:07:22.846Z,73.42
2018-08-04T03:09:52.832Z,73.90
2018-08-04T03:12:22.857Z,74.04
2018-08-04T03:14:53.630Z,74.24
2018-08-04T03:17:24.225Z,73.58
2018-08-04T03:19:54.286Z,74.04
2018-08-04T03:22:24.345Z,73.65
2018-08-04T03:24:54.422Z,73.91
2018-08-04T03:27:24.485Z,74.32
2018-08-04T03:29:54.866Z,74.80
2018-08-04T03:32:24.765Z,74.36
2018-08-04T03:34:54.742Z,75.13
2018-08-04T03:37:25.411Z,73.92
2018-08-04T03:39:55.419Z,74.61
2018-08-04T03:42:27.546Z,74.64
2018-08-04T03:44:59.329Z,75.40
2018-08-04T03:47:29.498Z,74.78
2018-08-04T03:50:03.558Z,74.19
2018-08-04T03:52:33.941Z,75.99
2018-08-04T03:55:04.823Z,75.41
2018-08-04T03:57:34.874Z,74.97
2018-08-04T04:00:06.248Z,75.83
2018-08-04T04:02:36.399Z,75.04
2018-08-04T04:05:06.464Z,74.65
2018-08-04T04:07:36.477Z,75.21
2018-08-04T04:10:07.127Z,75.38
2018-08-04T04:12:39.072Z,75.19
2018-08-04T04:15:10.098Z,74.95
2018-08-04T04:17:45.322Z,74.54
2018-08-04T04:20:16.896Z,74.49
2018-08-04T04:22:46.928Z,74.72
2018-08-04T04:25:16.917Z,75.25
2018-08-04T04:27:46.894Z,75.35
2018-08-04T04:30:17.221Z,75.72
2018-08-04T04:32:47.354Z,75.13
2018-08-04T04:35:17.354Z,75.77
2018-08-04T04:37:47.360Z,76.34
2018-08-04T04:40:18.186Z,75.65
2018-08-04T04:42:48.175Z,75.03
2018-08-04T04:45:18.665Z,75.13
2018-08-04T04:47:48.615Z,75.39
2018-08-04T04:50:18.624Z,75.83
2018-08-04T04:52:48.589Z,74.55
2018-08-04T04:55:18.537Z,75.41
2018-08-04T04:57:49.585Z,75.23
2018-08-04T05:00:21.086Z,75.38
2018-08-04T05:02:51.038Z,74.83
2018-08-04T05:05:21.229Z,73.59
2018-08-04T05:07:51.232Z,73.04
2018-08-04T05:10:21.329Z,73.57
2018-08-04T05:12:51.901Z,72.69
2018-08-04T05:15:22.224Z,72.33
2018-08-04T05:17:52.186Z,73.37
2018-08-04T05:20:23.102Z,72.75
2018-08-04T05:22:56.867Z,72.04
2018-08-04T05:25:27.599Z,71.62
2018-08-04T05:27:58.231Z,71.58
2018-08-04T05:30:28.496Z,71.33
2018-08-04T05:33:00.088Z,71.64
2018-08-04T05:35:30.094Z,70.88
2018-08-04T05:38:00.383Z,69.01
2018-08-04T05:40:32.271Z,68.45
2018-08-04T05:43:02.230Z,65.63
2018-08-04T05:45:34.198Z,66.94
2018-08-04T05:48:04.280Z,65.69
2018-08-04T05:50:34.232Z,65.83
2018-08-04T05:53:04.342Z,66.39
2018-08-04T05:55:34.379Z,65.73
2018-08-04T05:58:06.173Z,66.63
2018-08-04T06:00:36.390Z,65.04
2018-08-04T06:03:06.335Z,65.35
2018-08-04T06:05:36.320Z,63.84
2018-08-04T06:08:06.332Z,63.92
2018-08-04T06:10:36.337Z,64.49
2018-08-04T06:13:06.428Z,62.93
2018-08-04T06:15:36.791Z,63.60
2018-08-04T06:18:08.664Z,62.62
2018-08-04T06:20:38.684Z,63.31
2018-08-04T06:23:11.118Z,63.42
2018-08-04T06:25:41.148Z,64.12
2018-08-04T06:28:19.733Z,63.81
2018-08-04T06:30:49.793Z,63.08
2018-08-04T06:33:19.885Z,63.20
2018-08-04T06:35:49.939Z,62.32
2018-08-04T06:38:20.073Z,62.94
2018-08-04T06:40:50.046Z,64.18
2018-08-04T06:43:20.127Z,65.38
2018-08-04T06:45:50.659Z,65.93
2018-08-04T06:48:20.621Z,66.49
2018-08-04T06:50:50.593Z,66.15
2018-08-04T06:53:21.216Z,67.31
2018-08-04T06:55:52.018Z,67.71
2018-08-04T06:58:22.924Z,67.45
2018-08-04T07:00:53.196Z,66.88
2018-08-04T07:03:24.975Z,67.79
2018-08-04T07:05:55.124Z,68.73
2018-08-04T07:08:25.759Z,70.02
2018-08-04T07:10:58.333Z,69.86
2018-08-04T07:13:29.686Z,69.94
2018-08-04T07:15:59.738Z,70.73
2018-08-04T07:18:33.895Z,70.98
2018-08-04T07:21:04.708Z,71.20
2018-08-04T07:23:34.942Z,73.38
2018-08-04T07:26:05.493Z,71.98
2018-08-04T07:28:35.552Z,70.39
2018-08-04T07:31:05.562Z,69.27
2018-08-04T07:33:35.609Z,73.19
2018-08-04T07:36:06.670Z,72.11
2018-08-04T07:38:40.800Z,71.19
2018-08-04T07:41:11.817Z,71.25
2018-08-04T07:43:41.898Z,71.08
2018-08-04T07:46:12.271Z,71.41
2018-08-04T07:48:43.308Z,72.76
2018-08-04T07:51:13.825Z,72.31
2018-08-04T07:53:43.754Z,72.49
2018-08-04T07:56:13.738Z,73.24
2018-08-04T07:58:43.731Z,71.37
2018-08-04T08:01:15.150Z,73.25
2018-08-04T08:03:45.177Z,73.38
2018-08-04T08:06:16.733Z,71.46
2018-08-04T08:08:46.897Z,72.37
2018-08-04T08:11:17.716Z,71.06
2018-08-04T08:13:48.737Z,71.10
2018-08-04T08:16:19.672Z,69.99
2018-08-04T08:19:08.506Z,69.57
2018-08-04T08:21:38.445Z,68.00
2018-08-04T08:24:09.869Z,66.55
2018-08-04T08:26:40.283Z,67.87
2018-08-04T08:29:10.247Z,68.26
2018-08-04T08:31:40.664Z,68.05
2018-08-04T08:34:10.680Z,64.53
2018-08-04T08:36:44.535Z,61.83
2018-08-04T08:39:14.593Z,59.20
2018-08-04T08:41:45.260Z,57.89
2018-08-04T08:44:17.770Z,56.79
2018-08-04T08:46:47.755Z,53.88
2018-08-04T08:49:17.961Z,52.77
2018-08-04T08:51:47.869Z,52.58
2018-08-04T08:54:21.071Z,52.38
2018-08-04T08:56:52.474Z,51.28
2018-08-04T08:59:24.738Z,51.96
2018-08-04T09:01:54.743Z,49.74
2018-08-04T09:04:24.689Z,47.76
2018-08-04T09:06:56.235Z,46.41
2018-08-04T09:09:39.477Z,48.25
2018-08-04T09:12:09.529Z,47.21
2018-08-04T09:14:40.362Z,50.44
2018-08-04T09:17:11.386Z,52.60
2018-08-04T09:19:41.335Z,53.15
2018-08-04T09:22:11.284Z,52.74
2018-08-04T09:24:41.288Z,52.29
2018-08-04T09:27:16.434Z,50.74
2018-08-04T09:29:46.424Z,46.44
2018-08-04T09:32:16.885Z,46.04
2018-08-04T09:34:47.141Z,46.35
2018-08-04T09:37:17.661Z,48.68
2018-08-04T09:39:49.902Z,50.15
2018-08-04T09:42:23.233Z,50.79
2018-08-04T09:44:53.561Z,49.32
2018-08-04T09:47:26.048Z,47.39
2018-08-04T09:49:56.246Z,48.30
2018-08-04T09:52:27.564Z,48.62
2018-08-04T09:55:12.498Z,47.69
2018-08-04T09:57:43.235Z,44.93
2018-08-04T10:00:19.224Z,45.60
2018-08-04T10:02:49.376Z,45.17
2018-08-04T10:05:20.378Z,45.87
2018-08-04T10:07:51.698Z,43.99
2018-08-04T10:10:21.609Z,44.57
2018-08-04T10:12:54.874Z,44.42
2018-08-04T10:15:27.435Z,44.42
2018-08-04T10:17:58.975Z,46.78
2018-08-04T10:20:31.633Z,46.49
2018-08-04T10:23:02.321Z,44.43
2018-08-04T10:25:33.392Z,45.22
2018-08-04T10:28:05.888Z,43.71
2018-08-04T10:30:38.577Z,43.35
2018-08-04T10:33:08.513Z,42.92
2018-08-04T10:35:39.240Z,43.21
2018-08-04T10:38:10.409Z,42.20
2018-08-04T10:40:43.806Z,40.78
2018-08-04T10:43:14.250Z,41.49
2018-08-04T10:45:44.560Z,44.05
2018-08-04T10:48:14.686Z,41.53
2018-08-04T10:50:45.975Z,42.54
2018-08-04T10:53:18.734Z,40.89
2018-08-04T10:55:50.414Z,40.74
2018-08-04T10:58:20.779Z,41.55
2018-08-04T11:00:52.138Z,41.44
2018-08-04T11:03:23.714Z,41.01
2018-08-04T11:05:57.568Z,39.57
2018-08-04T11:08:27.719Z,40.52
2018-08-04T11:11:00.161Z,41.62
2018-08-04T11:13:31.248Z,40.18
2018-08-04T11:16:01.824Z,40.18
2018-08-04T11:18:31.867Z,38.41
2018-08-04T11:21:04.701Z,39.64
2018-08-04T11:23:35.899Z,37.47
2018-08-04T11:26:06.046Z,38.44
2018-08-04T11:28:37.834Z,37.45
2018-08-04T11:31:08.249Z,37.53
2018-08-04T11:33:41.837Z,39.23
2018-08-04T11:36:12.685Z,40.12
2018-08-04T11:38:43.606Z,38.36
2018-08-04T11:41:16.779Z,38.28
2018-08-04T11:43:48.534Z,38.76
2018-08-04T11:46:21.938Z,39.16
2018-08-04T11:48:51.873Z,39.49
2018-08-04T11:51:22.500Z,40.11
2018-08-04T11:53:54.211Z,40.99
2018-08-04T11:56:29.374Z,40.01
2018-08-04T11:59:00.745Z,40.95
2018-08-04T12:01:31.386Z,41.11
2018-08-04T12:04:01.362Z,42.04
2018-08-04T12:06:33.635Z,39.86
2018-08-04T12:09:05.283Z,38.23
2018-08-04T12:11:36.302Z,38.55
2018-08-04T12:14:08.224Z,37.38
2018-08-04T12:16:38.841Z,37.65
2018-08-04T12:19:09.661Z,37.00
2018-08-04T12:21:40.435Z,37.13
2018-08-04T12:24:11.857Z,36.98
2018-08-04T12:26:41.875Z,37.59
2018-08-04T12:29:12.175Z,36.63
2018-08-04T12:31:42.357Z,37.17
2018-08-04T12:34:13.709Z,36.03
2018-08-04T12:36:44.234Z,36.61
2018-08-04T12:39:15.190Z,37.26
2018-08-04T12:41:45.941Z,37.34
2018-08-04T12:44:18.713Z,36.33
2018-08-04T12:46:51.297Z,36.58
2018-08-04T12:49:22.188Z,36.13
2018-08-04T12:52:09.318Z,36.66
2018-08-04T12:54:43.844Z,37.40
2018-08-04T12:57:17.781Z,36.84
2018-08-04T12:59:49.829Z,36.90
2018-08-04T13:02:22.791Z,36.57
2018-08-04T13:04:53.223Z,36.96
2018-08-04T13:07:25.508Z,36.51
2018-08-04T13:09:57.230Z,37.27
2018-08-04T13:12:27.915Z,36.01
2018-08-04T13:14:59.627Z,35.84
2018-08-04T13:17:30.377Z,36.17
2018-08-04T13:20:04.356Z,36.35
2018-08-04T13:22:34.354Z,36.06
2018-08-04T13:25:07.454Z,35.56
2018-08-04T13:27:37.521Z,35.38
2018-08-04T13:30:07.441Z,35.34
2018-08-04T13:32:41.959Z,36.42
2018-08-04T13:35:14.522Z,36.58
2018-08-04T13:37:44.570Z,36.89
2018-08-04T13:40:16.373Z,36.70
2018-08-04T13:42:48.471Z,36.47
2018-08-04T13:45:18.562Z,37.72
2018-08-04T13:47:52.670Z,35.84
2018-08-04T13:50:22.774Z,36.41
2018-08-04T13:52:56.676Z,35.69
2018-08-04T13:55:28.501Z,36.92
2018-08-04T13:57:58.431Z,37.37
2018-08-04T14:00:29.116Z,36.77
2018-08-04T14:02:59.245Z,35.76
2018-08-04T14:05:32.177Z,36.57
2018-08-04T14:08:02.280Z,36.41
2018-08-04T14:10:32.530Z,36.04
2018-08-04T14:13:04.496Z,35.38
2018-08-04T14:15:36.204Z,35.50
2018-08-04T14:18:08.207Z,33.86
2018-08-04T14:20:38.822Z,33.29
2018-08-04T14:23:08.759Z,33.81
2018-08-04T14:25:40.241Z,33.02
2018-08-04T14:28:11.835Z,33.33
2018-08-04T14:30:43.551Z,33.15
2018-08-04T14:33:14.894Z,33.91
2018-08-04T14:35:45.901Z,32.74
2018-08-04T14:38:17.579Z,33.80
2018-08-04T14:40:48.432Z,32.49
2018-08-04T14:43:18.396Z,32.70
2018-08-04T14:45:50.621Z,32.84
2018-08-04T14:48:21.074Z,32.94
2018-08-04T14:50:51.684Z,32.29
2018-08-04T14:53:23.903Z,30.57
2018-08-04T14:55:54.864Z,32.01
2018-08-04T14:58:25.964Z,32.42
2018-08-04T15:00:58.470Z,32.31
2018-08-04T15:03:29.283Z,33.86
2018-08-04T15:06:03.289Z,33.87
2018-08-04T15:08:34.846Z,34.86
2018-08-04T15:11:04.749Z,35.74
2018-08-04T15:13:38.648Z,34.76
2018-08-04T15:16:09.955Z,35.82
2018-08-04T15:18:39.962Z,36.18
2018-08-04T15:21:10.348Z,35.94
2018-08-04T15:23:40.967Z,35.84
2018-08-04T15:26:11.003Z,36.01
2018-08-04T15:28:41.310Z,36.24
2018-08-04T15:31:13.314Z,36.48
2018-08-04T15:33:45.052Z,36.44
2018-08-04T15:36:15.429Z,35.69
2018-08-04T15:38:45.427Z,35.28
2018-08-04T15:41:18.138Z,35.11
2018-08-04T15:43:48.930Z,33.59
2018-08-04T15:46:19.325Z,32.17
2018-08-04T15:48:50.306Z,32.12
2018-08-04T15:51:21.117Z,32.78
2018-08-04T15:53:51.510Z,31.78
2018-08-04T15:56:22.705Z,32.62
2018-08-04T15:58:58.602Z,33.74
2018-08-04T16:01:31.645Z,33.71
2018-08-04T16:04:02.182Z,33.64
2018-08-04T16:06:32.446Z,33.58
2018-08-04T16:09:05.214Z,34.87
2018-08-04T16:11:40.159Z,35.15
2018-08-04T16:14:10.981Z,35.80
2018-08-04T16:16:44.772Z,35.21
2018-08-04T16:19:14.735Z,35.21
2018-08-04T16:21:45.269Z,36.41
2018-08-04T16:24:15.997Z,36.58
2018-08-04T16:26:50.073Z,36.41
2018-08-04T16:29:21.407Z,35.44
2018-08-04T16:31:53.629Z,36.36
2018-08-04T16:34:24.479Z,35.63
2018-08-04T16:36:58.024Z,35.35
2018-08-04T16:39:28.467Z,35.67
2018-08-04T16:42:01.291Z,36.35
2018-08-04T16:44:32.254Z,36.54
2018-08-04T16:47:08.462Z,36.35
2018-08-04T16:49:41.337Z,37.22
2018-08-04T16:52:11.293Z,37.52
2018-08-04T16:54:41.302Z,37.58
2018-08-04T16:57:13.834Z,38.80
2018-08-04T16:59:49.090Z,38.08
2018-08-04T17:02:20.563Z,39.29
2018-08-04T17:04:51.496Z,38.65
2018-08-04T17:07:22.309Z,39.77
2018-08-04T17:10:03.243Z,38.66
2018-08-04T17:12:34.647Z,38.63
2018-08-04T17:15:05.549Z,39.28
2018-08-04T17:17:43.026Z,39.85
2018-08-04T17:20:21.364Z,41.55
2018-08-04T17:22:54.259Z,40.25
2018-08-04T17:25:26.733Z,41.03
2018-08-04T17:27:58.692Z,40.42
2018-08-04T17:30:30.515Z,41.14
2018-08-04T17:33:03.919Z,40.06
2018-08-04T17:35:37.848Z,40.69
2018-08-04T17:38:12.834Z,40.64
2018-08-04T17:40:47.454Z,41.63
2018-08-04T17:43:18.242Z,41.29
2018-08-04T17:45:48.348Z,40.97
2018-08-04T17:48:21.230Z,41.40
2018-08-04T17:50:52.015Z,41.33
2018-08-04T17:53:23.483Z,41.32
2018-08-04T17:55:53.417Z,42.03
2018-08-04T17:58:25.289Z,42.97
2018-08-04T18:00:55.207Z,43.84
2018-08-04T18:03:26.452Z,45.09
2018-08-04T18:05:56.393Z,45.25
2018-08-04T18:08:26.452Z,45.92
2018-08-04T18:10:57.545Z,45.44
2018-08-04T18:13:29.579Z,46.75
2018-08-04T18:15:59.507Z,46.02
2018-08-04T18:18:29.771Z,45.58
2018-08-04T18:21:00.442Z,46.71
2018-08-04T18:23:30.550Z,46.95
2018-08-04T18:26:01.251Z,47.84
2018-08-04T18:28:32.394Z,47.33
2018-08-04T18:31:03.786Z,47.99
2018-08-04T18:33:43.942Z,48.41
2018-08-04T18:36:14.716Z,48.04
2018-08-04T18:38:45.170Z,48.38
2018-08-04T18:41:19.711Z,48.69
2018-08-04T18:43:51.392Z,48.01
2018-08-04T18:46:21.603Z,48.77
2018-08-04T18:48:52.821Z,49.67
2018-08-04T18:51:22.805Z,49.08
2018-08-04T18:53:53.655Z,49.75
2018-08-04T18:56:24.034Z,49.59
2018-08-04T18:58:54.215Z,49.12
2018-08-04T19:01:25.619Z,49.63
2018-08-04T19:03:56.224Z,50.11
2018-08-04T19:06:26.257Z,50.21
2018-08-04T19:08:57.063Z,49.90
2018-08-04T19:11:30.958Z,51.20
2018-08-04T19:14:05.108Z,50.67
2018-08-04T19:16:37.054Z,50.83
2018-08-04T19:19:09.794Z,51.47
2018-08-04T19:21:40.397Z,52.54
2018-08-04T19:24:10.598Z,51.13
2018-08-04T19:26:41.554Z,52.65
2018-08-04T19:29:13.767Z,52.90
2018-08-04T19:31:51.979Z,52.55
2018-08-04T19:34:23.450Z,52.77
2018-08-04T19:36:53.622Z,53.39
2018-08-04T19:39:24.787Z,52.22
2018-08-04T19:41:56.014Z,52.76
2018-08-04T19:44:27.115Z,53.05
2018-08-04T19:46:57.222Z,53.58
2018-08-04T19:49:27.752Z,54.33
2018-08-04T19:51:58.358Z,54.72
2018-08-04T19:54:31.134Z,53.55
2018-08-04T19:57:02.334Z,56.21
2018-08-04T19:59:35.958Z,56.41
2018-08-04T20:02:06.666Z,56.06
2018-08-04T20:04:41.177Z,56.79
2018-08-04T20:07:18.244Z,56.11
2018-08-04T20:09:51.252Z,55.35
2018-08-04T20:12:21.138Z,55.94
2018-08-04T20:14:53.477Z,55.71
2018-08-04T20:17:23.404Z,55.71
2018-08-04T20:19:55.684Z,57.05
2018-08-04T20:22:26.327Z,55.50
2018-08-04T20:24:56.567Z,56.93
2018-08-04T20:27:26.479Z,57.58
2018-08-04T20:30:32.406Z,57.44
2018-08-04T20:33:05.635Z,58.42
2018-08-04T20:35:50.277Z,58.62
2018-08-04T20:38:22.214Z,58.11
2018-08-04T20:40:58.390Z,58.34
2018-08-04T20:43:30.413Z,57.87
2018-08-04T20:46:04.509Z,58.58
2018-08-04T20:48:36.491Z,58.41
2018-08-04T20:51:07.466Z,57.15
2018-08-04T20:53:44.374Z,57.20
2018-08-04T20:56:15.154Z,58.48
2018-08-04T20:58:47.745Z,59.07
2018-08-04T21:01:30.349Z,58.05
2018-08-04T21:04:03.235Z,58.61
2018-08-04T21:06:35.446Z,59.02
2018-08-04T21:09:09.807Z,57.84
2018-08-04T21:11:58.479Z,59.69
2018-08-04T21:14:30.246Z,58.84
2018-08-04T21:17:01.845Z,58.93
2018-08-04T21:19:34.838Z,58.13
2018-08-04T21:22:05.692Z,58.17
2018-08-04T21:24:40.034Z,59.95
2018-08-04T21:27:14.501Z,59.06
2018-08-04T21:29:46.457Z,60.08
2018-08-04T21:32:18.420Z,59.64
2018-08-04T21:34:50.446Z,59.91
2018-08-04T21:37:20.479Z,63.44
2018-08-04T21:39:52.577Z,62.54
2018-08-04T21:42:23.294Z,63.68
2018-08-04T21:44:56.007Z,64.71
2018-08-04T21:47:27.976Z,65.57
2018-08-04T21:50:00.475Z,66.53
2018-08-04T21:52:32.961Z,65.61
2018-08-04T21:55:05.290Z,65.97
2018-08-04T21:57:35.266Z,68.42
2018-08-04T22:00:10.462Z,67.96
2018-08-04T22:02:49.807Z,68.19
2018-08-04T22:05:23.018Z,69.70
2018-08-04T22:08:06.329Z,65.71
2018-08-04T22:10:37.221Z,65.33
2018-08-04T22:15:48.259Z,62.70
2018-08-04T22:18:19.262Z,63.00
2018-08-04T22:20:49.234Z,62.62
2018-08-04T22:23:19.385Z,63.08
2018-08-04T22:25:49.599Z,63.34
2018-08-04T22:28:19.649Z,63.96
2018-08-04T22:30:50.537Z,66.10
2018-08-04T22:33:21.847Z,65.90
2018-08-04T22:35:51.798Z,65.64
2018-08-04T22:38:21.755Z,65.87
2018-08-04T22:40:55.424Z,66.08
2018-08-04T22:43:25.350Z,66.86
2018-08-04T22:46:03.249Z,67.26
2018-08-04T22:48:33.559Z,67.84
2018-08-04T22:51:03.497Z,68.35
2018-08-04T22:53:34.248Z,69.49
2018-08-04T22:56:06.699Z,70.25
2018-08-04T22:58:38.230Z,70.97
2018-08-04T23:01:08.231Z,71.01
2018-08-04T23:03:38.817Z,71.72
2018-08-04T23:06:08.802Z,70.92
2018-08-04T23:08:45.249Z,71.13
2018-08-04T23:11:15.186Z,72.06
2018-08-04T23:13:46.524Z,72.06
2018-08-04T23:16:17.142Z,71.05
2018-08-04T23:18:47.192Z,72.57
2018-08-04T23:21:17.199Z,72.42
2018-08-04T23:23:47.822Z,71.75
2018-08-04T23:26:17.824Z,71.16
2018-08-04T23:28:47.849Z,71.68
2018-08-04T23:31:18.545Z,72.05
2018-08-04T23:33:48.482Z,72.67
2018-08-04T23:36:18.901Z,73.34
2018-08-04T23:38:49.817Z,72.73
2018-08-04T23:41:19.776Z,72.19
2018-08-04T23:43:49.736Z,72.21
2018-08-04T23:46:19.702Z,73.07
2018-08-04T23:48:50.676Z,72.05
2018-08-04T23:51:21.303Z,72.73
2018-08-04T23:53:53.354Z,72.38
2018-08-04T23:56:24.393Z,72.57
2018-08-04T23:58:55.615Z,73.65
